sensor_id;sensor_type;location;lat;lon;timestamp;temperature;humidity
9373;DHT22;10838;52.350;9.790;2023-11-22T00:00:27;4.30;95.50
9373;DHT22;10838;52.350;9.790;2023-11-22T00:02:53;4.20;95.50
9373;DHT22;10838;52.350;9.790;2023-11-22T00:05:20;4.20;95.50
9373;DHT22;10838;52.350;9.790;2023-11-22T00:07:46;4.10;95.40
9373;DHT22;10838;52.350;9.790;2023-11-22T00:10:14;4.10;95.40
9373;DHT22;10838;52.350;9.790;2023-11-22T00:12:41;4.10;95.50
9373;DHT22;10838;52.350;9.790;2023-11-22T00:15:08;4.00;95.40
9373;DHT22;10838;52.350;9.790;2023-11-22T00:17:37;4.00;95.40
9373;DHT22;10838;52.350;9.790;2023-11-22T00:20:05;3.90;95.40
9373;DHT22;10838;52.350;9.790;2023-11-22T00:22:33;3.90;95.40
9373;DHT22;10838;52.350;9.790;2023-11-22T00:24:59;3.80;95.40
9373;DHT22;10838;52.350;9.790;2023-11-22T00:27:28;3.80;95.40
9373;DHT22;10838;52.350;9.790;2023-11-22T00:29:55;3.80;95.40
9373;DHT22;10838;52.350;9.790;2023-11-22T00:32:22;3.70;95.40
9373;DHT22;10838;52.350;9.790;2023-11-22T00:34:49;3.70;95.40
9373;DHT22;10838;52.350;9.790;2023-11-22T00:37:16;3.70;95.40
9373;DHT22;10838;52.350;9.790;2023-11-22T00:39:42;3.60;95.40
9373;DHT22;10838;52.350;9.790;2023-11-22T00:42:09;3.60;95.40
9373;DHT22;10838;52.350;9.790;2023-11-22T00:44:37;3.50;95.40
9373;DHT22;10838;52.350;9.790;2023-11-22T00:47:04;3.50;95.40
9373;DHT22;10838;52.350;9.790;2023-11-22T00:49:31;3.50;95.40
9373;DHT22;10838;52.350;9.790;2023-11-22T00:51:58;3.40;95.40
9373;DHT22;10838;52.350;9.790;2023-11-22T00:54:25;3.40;95.40
9373;DHT22;10838;52.350;9.790;2023-11-22T00:56:51;3.30;95.40
9373;DHT22;10838;52.350;9.790;2023-11-22T00:59:18;3.30;95.40
9373;DHT22;10838;52.350;9.790;2023-11-22T01:01:47;3.30;95.40
9373;DHT22;10838;52.350;9.790;2023-11-22T01:04:13;3.30;95.40
9373;DHT22;10838;52.350;9.790;2023-11-22T01:06:40;3.20;95.40
9373;DHT22;10838;52.350;9.790;2023-11-22T01:09:07;3.20;95.50
9373;DHT22;10838;52.350;9.790;2023-11-22T01:11:34;3.20;95.40
9373;DHT22;10838;52.350;9.790;2023-11-22T01:14:00;3.10;95.40
9373;DHT22;10838;52.350;9.790;2023-11-22T01:16:27;3.10;95.40
9373;DHT22;10838;52.350;9.790;2023-11-22T01:18:55;3.10;95.40
9373;DHT22;10838;52.350;9.790;2023-11-22T01:21:21;3.10;95.50
9373;DHT22;10838;52.350;9.790;2023-11-22T01:23:48;3.00;95.40
9373;DHT22;10838;52.350;9.790;2023-11-22T01:26:15;3.00;95.40
9373;DHT22;10838;52.350;9.790;2023-11-22T01:28:42;2.90;95.40
9373;DHT22;10838;52.350;9.790;2023-11-22T01:31:11;2.90;95.40
9373;DHT22;10838;52.350;9.790;2023-11-22T01:33:38;2.90;95.40
9373;DHT22;10838;52.350;9.790;2023-11-22T01:36:07;2.90;95.40
9373;DHT22;10838;52.350;9.790;2023-11-22T01:38:34;2.80;95.40
9373;DHT22;10838;52.350;9.790;2023-11-22T01:41:01;2.80;95.40
9373;DHT22;10838;52.350;9.790;2023-11-22T01:43:27;2.70;95.30
9373;DHT22;10838;52.350;9.790;2023-11-22T01:45:54;2.70;95.40
9373;DHT22;10838;52.350;9.790;2023-11-22T01:48:21;2.70;95.40
9373;DHT22;10838;52.350;9.790;2023-11-22T01:50:48;2.70;95.40
9373;DHT22;10838;52.350;9.790;2023-11-22T01:53:17;2.60;95.40
9373;DHT22;10838;52.350;9.790;2023-11-22T01:55:47;2.60;95.40
9373;DHT22;10838;52.350;9.790;2023-11-22T01:58:14;2.60;95.40
9373;DHT22;10838;52.350;9.790;2023-11-22T02:00:45;2.60;95.40
9373;DHT22;10838;52.350;9.790;2023-11-22T02:03:12;2.50;95.40
9373;DHT22;10838;52.350;9.790;2023-11-22T02:05:40;2.50;95.40
9373;DHT22;10838;52.350;9.790;2023-11-22T02:08:08;2.50;95.40
9373;DHT22;10838;52.350;9.790;2023-11-22T02:10:36;2.50;95.40
9373;DHT22;10838;52.350;9.790;2023-11-22T02:13:03;2.50;95.40
9373;DHT22;10838;52.350;9.790;2023-11-22T02:15:32;2.40;95.40
9373;DHT22;10838;52.350;9.790;2023-11-22T02:17:59;2.40;95.40
9373;DHT22;10838;52.350;9.790;2023-11-22T02:20:25;2.40;95.40
9373;DHT22;10838;52.350;9.790;2023-11-22T02:22:53;2.40;95.40
9373;DHT22;10838;52.350;9.790;2023-11-22T02:25:22;2.40;95.40
9373;DHT22;10838;52.350;9.790;2023-11-22T02:27:49;2.30;95.40
9373;DHT22;10838;52.350;9.790;2023-11-22T02:30:15;2.30;95.40
9373;DHT22;10838;52.350;9.790;2023-11-22T02:32:43;2.30;95.40
9373;DHT22;10838;52.350;9.790;2023-11-22T02:35:10;2.30;95.40
9373;DHT22;10838;52.350;9.790;2023-11-22T02:37:37;2.20;95.40
9373;DHT22;10838;52.350;9.790;2023-11-22T02:40:06;2.20;95.40
9373;DHT22;10838;52.350;9.790;2023-11-22T02:42:37;2.20;95.40
9373;DHT22;10838;52.350;9.790;2023-11-22T02:45:04;2.20;95.40
9373;DHT22;10838;52.350;9.790;2023-11-22T02:47:32;2.20;95.40
9373;DHT22;10838;52.350;9.790;2023-11-22T02:50:00;2.10;95.40
9373;DHT22;10838;52.350;9.790;2023-11-22T02:52:27;2.10;95.40
9373;DHT22;10838;52.350;9.790;2023-11-22T02:54:53;2.10;95.40
9373;DHT22;10838;52.350;9.790;2023-11-22T02:57:20;2.10;95.40
9373;DHT22;10838;52.350;9.790;2023-11-22T02:59:48;2.00;95.40
9373;DHT22;10838;52.350;9.790;2023-11-22T03:02:15;2.00;95.40
9373;DHT22;10838;52.350;9.790;2023-11-22T03:04:42;2.00;95.40
9373;DHT22;10838;52.350;9.790;2023-11-22T03:07:08;2.00;95.40
9373;DHT22;10838;52.350;9.790;2023-11-22T03:09:35;1.90;95.40
9373;DHT22;10838;52.350;9.790;2023-11-22T03:12:02;1.90;95.40
9373;DHT22;10838;52.350;9.790;2023-11-22T03:14:29;1.90;95.40
9373;DHT22;10838;52.350;9.790;2023-11-22T03:16:57;1.90;95.40
9373;DHT22;10838;52.350;9.790;2023-11-22T03:19:24;1.90;95.40
9373;DHT22;10838;52.350;9.790;2023-11-22T03:21:50;1.90;95.40
9373;DHT22;10838;52.350;9.790;2023-11-22T03:24:17;1.90;95.40
9373;DHT22;10838;52.350;9.790;2023-11-22T03:26:44;1.90;95.40
9373;DHT22;10838;52.350;9.790;2023-11-22T03:29:11;1.90;95.50
9373;DHT22;10838;52.350;9.790;2023-11-22T03:31:37;1.90;95.50
9373;DHT22;10838;52.350;9.790;2023-11-22T03:34:06;1.90;95.50
9373;DHT22;10838;52.350;9.790;2023-11-22T03:36:33;1.90;95.50
9373;DHT22;10838;52.350;9.790;2023-11-22T03:39:00;1.90;95.50
9373;DHT22;10838;52.350;9.790;2023-11-22T03:41:26;1.90;95.50
9373;DHT22;10838;52.350;9.790;2023-11-22T03:43:53;1.90;95.50
9373;DHT22;10838;52.350;9.790;2023-11-22T03:46:19;1.90;95.60
9373;DHT22;10838;52.350;9.790;2023-11-22T03:48:46;1.90;95.60
9373;DHT22;10838;52.350;9.790;2023-11-22T03:51:14;1.90;95.60
9373;DHT22;10838;52.350;9.790;2023-11-22T03:53:41;1.90;95.60
9373;DHT22;10838;52.350;9.790;2023-11-22T03:56:08;1.90;95.60
9373;DHT22;10838;52.350;9.790;2023-11-22T03:58:34;1.90;95.60
9373;DHT22;10838;52.350;9.790;2023-11-22T04:01:02;1.80;95.60
9373;DHT22;10838;52.350;9.790;2023-11-22T04:03:28;1.80;95.60
9373;DHT22;10838;52.350;9.790;2023-11-22T04:05:55;1.80;95.60
9373;DHT22;10838;52.350;9.790;2023-11-22T04:08:23;1.80;95.60
9373;DHT22;10838;52.350;9.790;2023-11-22T04:10:50;1.80;95.60
9373;DHT22;10838;52.350;9.790;2023-11-22T04:13:17;1.80;95.60
9373;DHT22;10838;52.350;9.790;2023-11-22T04:15:44;1.80;95.60
9373;DHT22;10838;52.350;9.790;2023-11-22T04:18:11;1.80;95.60
9373;DHT22;10838;52.350;9.790;2023-11-22T04:20:37;1.80;95.60
9373;DHT22;10838;52.350;9.790;2023-11-22T04:23:05;1.80;95.60
9373;DHT22;10838;52.350;9.790;2023-11-22T04:25:33;1.80;95.60
9373;DHT22;10838;52.350;9.790;2023-11-22T04:28:00;1.70;95.60
9373;DHT22;10838;52.350;9.790;2023-11-22T04:30:27;1.70;95.60
9373;DHT22;10838;52.350;9.790;2023-11-22T04:32:53;1.70;95.60
9373;DHT22;10838;52.350;9.790;2023-11-22T04:35:20;1.70;95.60
9373;DHT22;10838;52.350;9.790;2023-11-22T04:37:47;1.70;95.60
9373;DHT22;10838;52.350;9.790;2023-11-22T04:40:14;1.70;95.60
9373;DHT22;10838;52.350;9.790;2023-11-22T04:42:42;1.70;95.60
9373;DHT22;10838;52.350;9.790;2023-11-22T04:45:10;1.60;95.60
9373;DHT22;10838;52.350;9.790;2023-11-22T04:47:36;1.60;95.60
9373;DHT22;10838;52.350;9.790;2023-11-22T04:50:03;1.60;95.60
9373;DHT22;10838;52.350;9.790;2023-11-22T04:52:31;1.60;95.60
9373;DHT22;10838;52.350;9.790;2023-11-22T04:54:58;1.60;95.60
9373;DHT22;10838;52.350;9.790;2023-11-22T04:57:25;1.50;95.60
9373;DHT22;10838;52.350;9.790;2023-11-22T04:59:53;1.50;95.60
9373;DHT22;10838;52.350;9.790;2023-11-22T05:02:19;1.40;95.60
9373;DHT22;10838;52.350;9.790;2023-11-22T05:04:46;1.40;95.60
9373;DHT22;10838;52.350;9.790;2023-11-22T05:07:14;1.40;95.60
9373;DHT22;10838;52.350;9.790;2023-11-22T05:09:41;1.40;95.60
9373;DHT22;10838;52.350;9.790;2023-11-22T05:12:09;1.40;95.60
9373;DHT22;10838;52.350;9.790;2023-11-22T05:14:35;1.30;95.60
9373;DHT22;10838;52.350;9.790;2023-11-22T05:17:04;1.30;95.60
9373;DHT22;10838;52.350;9.790;2023-11-22T05:19:30;1.30;95.60
9373;DHT22;10838;52.350;9.790;2023-11-22T05:21:57;1.30;95.60
9373;DHT22;10838;52.350;9.790;2023-11-22T05:24:24;1.30;95.50
9373;DHT22;10838;52.350;9.790;2023-11-22T05:26:50;1.30;95.50
9373;DHT22;10838;52.350;9.790;2023-11-22T05:29:17;1.20;95.50
9373;DHT22;10838;52.350;9.790;2023-11-22T05:31:44;1.20;95.50
9373;DHT22;10838;52.350;9.790;2023-11-22T05:34:12;1.20;95.50
9373;DHT22;10838;52.350;9.790;2023-11-22T05:36:39;1.20;95.50
9373;DHT22;10838;52.350;9.790;2023-11-22T05:39:06;1.20;95.50
9373;DHT22;10838;52.350;9.790;2023-11-22T05:41:32;1.20;95.50
9373;DHT22;10838;52.350;9.790;2023-11-22T05:43:59;1.10;95.50
9373;DHT22;10838;52.350;9.790;2023-11-22T05:46:25;1.10;95.50
9373;DHT22;10838;52.350;9.790;2023-11-22T05:48:52;1.10;95.50
9373;DHT22;10838;52.350;9.790;2023-11-22T05:51:20;1.10;95.50
9373;DHT22;10838;52.350;9.790;2023-11-22T05:53:47;1.00;95.50
9373;DHT22;10838;52.350;9.790;2023-11-22T05:56:14;1.00;95.50
9373;DHT22;10838;52.350;9.790;2023-11-22T05:58:42;1.00;95.40
9373;DHT22;10838;52.350;9.790;2023-11-22T06:01:09;1.00;95.40
9373;DHT22;10838;52.350;9.790;2023-11-22T06:03:37;1.00;95.40
9373;DHT22;10838;52.350;9.790;2023-11-22T06:06:04;0.90;95.40
9373;DHT22;10838;52.350;9.790;2023-11-22T06:08:32;0.90;95.40
9373;DHT22;10838;52.350;9.790;2023-11-22T06:10:59;0.90;95.40
9373;DHT22;10838;52.350;9.790;2023-11-22T06:13:26;0.90;95.40
9373;DHT22;10838;52.350;9.790;2023-11-22T06:15:53;0.80;95.40
9373;DHT22;10838;52.350;9.790;2023-11-22T06:18:19;0.80;95.40
9373;DHT22;10838;52.350;9.790;2023-11-22T06:20:46;0.80;95.40
9373;DHT22;10838;52.350;9.790;2023-11-22T06:23:13;0.80;95.40
9373;DHT22;10838;52.350;9.790;2023-11-22T06:25:41;0.80;95.40
9373;DHT22;10838;52.350;9.790;2023-11-22T06:28:09;0.80;95.40
9373;DHT22;10838;52.350;9.790;2023-11-22T06:30:35;0.70;95.40
9373;DHT22;10838;52.350;9.790;2023-11-22T06:33:02;0.70;95.40
9373;DHT22;10838;52.350;9.790;2023-11-22T06:35:29;0.70;95.40
9373;DHT22;10838;52.350;9.790;2023-11-22T06:37:56;0.70;95.40
9373;DHT22;10838;52.350;9.790;2023-11-22T06:40:22;0.60;95.30
9373;DHT22;10838;52.350;9.790;2023-11-22T06:42:50;0.60;95.30
9373;DHT22;10838;52.350;9.790;2023-11-22T06:45:18;0.60;95.30
9373;DHT22;10838;52.350;9.790;2023-11-22T06:47:44;0.60;95.30
9373;DHT22;10838;52.350;9.790;2023-11-22T06:50:12;0.60;95.30
9373;DHT22;10838;52.350;9.790;2023-11-22T06:52:39;0.60;95.30
9373;DHT22;10838;52.350;9.790;2023-11-22T06:55:07;0.60;95.30
9373;DHT22;10838;52.350;9.790;2023-11-22T06:57:34;0.60;95.30
9373;DHT22;10838;52.350;9.790;2023-11-22T07:00:02;0.60;95.30
9373;DHT22;10838;52.350;9.790;2023-11-22T07:02:30;0.60;95.30
9373;DHT22;10838;52.350;9.790;2023-11-22T07:04:57;0.60;95.30
9373;DHT22;10838;52.350;9.790;2023-11-22T07:07:24;0.50;95.30
9373;DHT22;10838;52.350;9.790;2023-11-22T07:09:51;0.50;95.40
9373;DHT22;10838;52.350;9.790;2023-11-22T07:12:17;0.50;95.30
9373;DHT22;10838;52.350;9.790;2023-11-22T07:14:45;0.50;95.30
9373;DHT22;10838;52.350;9.790;2023-11-22T07:17:16;0.50;95.30
9373;DHT22;10838;52.350;9.790;2023-11-22T07:19:43;0.50;95.30
9373;DHT22;10838;52.350;9.790;2023-11-22T07:22:12;0.50;95.30
9373;DHT22;10838;52.350;9.790;2023-11-22T07:24:42;0.50;95.30
9373;DHT22;10838;52.350;9.790;2023-11-22T07:27:09;0.50;95.30
9373;DHT22;10838;52.350;9.790;2023-11-22T07:29:37;0.50;95.30
9373;DHT22;10838;52.350;9.790;2023-11-22T07:32:04;0.50;95.30
9373;DHT22;10838;52.350;9.790;2023-11-22T07:34:32;0.50;95.30
9373;DHT22;10838;52.350;9.790;2023-11-22T07:36:59;0.50;95.30
9373;DHT22;10838;52.350;9.790;2023-11-22T07:39:26;0.50;95.40
9373;DHT22;10838;52.350;9.790;2023-11-22T07:41:53;0.50;95.40
9373;DHT22;10838;52.350;9.790;2023-11-22T07:44:20;0.60;95.40
9373;DHT22;10838;52.350;9.790;2023-11-22T07:46:47;0.60;95.40
9373;DHT22;10838;52.350;9.790;2023-11-22T07:49:14;0.60;95.40
9373;DHT22;10838;52.350;9.790;2023-11-22T07:51:43;0.60;95.40
9373;DHT22;10838;52.350;9.790;2023-11-22T07:54:10;0.60;95.40
9373;DHT22;10838;52.350;9.790;2023-11-22T07:56:40;0.60;95.50
9373;DHT22;10838;52.350;9.790;2023-11-22T07:59:08;0.70;95.50
9373;DHT22;10838;52.350;9.790;2023-11-22T08:01:36;0.70;95.50
9373;DHT22;10838;52.350;9.790;2023-11-22T08:04:03;0.70;95.50
9373;DHT22;10838;52.350;9.790;2023-11-22T08:06:30;0.70;95.50
9373;DHT22;10838;52.350;9.790;2023-11-22T08:08:58;0.80;95.50
9373;DHT22;10838;52.350;9.790;2023-11-22T08:11:27;0.80;95.60
9373;DHT22;10838;52.350;9.790;2023-11-22T08:13:53;0.80;95.60
9373;DHT22;10838;52.350;9.790;2023-11-22T08:16:23;0.80;95.60
9373;DHT22;10838;52.350;9.790;2023-11-22T08:18:49;0.90;95.60
9373;DHT22;10838;52.350;9.790;2023-11-22T08:21:16;0.90;95.70
9373;DHT22;10838;52.350;9.790;2023-11-22T08:23:43;0.90;95.70
9373;DHT22;10838;52.350;9.790;2023-11-22T08:26:11;1.00;95.70
9373;DHT22;10838;52.350;9.790;2023-11-22T08:28:39;1.00;95.70
9373;DHT22;10838;52.350;9.790;2023-11-22T08:31:06;1.10;95.80
9373;DHT22;10838;52.350;9.790;2023-11-22T08:33:34;1.10;95.80
9373;DHT22;10838;52.350;9.790;2023-11-22T08:36:01;1.10;95.80
9373;DHT22;10838;52.350;9.790;2023-11-22T08:38:29;1.20;95.80
9373;DHT22;10838;52.350;9.790;2023-11-22T08:41:00;1.20;95.80
9373;DHT22;10838;52.350;9.790;2023-11-22T08:43:28;1.30;95.90
9373;DHT22;10838;52.350;9.790;2023-11-22T08:45:56;1.30;95.90
9373;DHT22;10838;52.350;9.790;2023-11-22T08:48:22;1.30;95.90
9373;DHT22;10838;52.350;9.790;2023-11-22T08:50:49;1.40;95.90
9373;DHT22;10838;52.350;9.790;2023-11-22T08:53:16;1.40;95.90
9373;DHT22;10838;52.350;9.790;2023-11-22T08:55:44;1.50;96.00
9373;DHT22;10838;52.350;9.790;2023-11-22T08:58:11;1.50;96.00
9373;DHT22;10838;52.350;9.790;2023-11-22T09:00:40;1.60;96.00
9373;DHT22;10838;52.350;9.790;2023-11-22T09:03:07;1.60;96.10
9373;DHT22;10838;52.350;9.790;2023-11-22T09:05:36;1.70;96.10
9373;DHT22;10838;52.350;9.790;2023-11-22T09:08:03;1.70;96.10
9373;DHT22;10838;52.350;9.790;2023-11-22T09:10:29;1.80;96.10
9373;DHT22;10838;52.350;9.790;2023-11-22T09:12:56;1.80;96.10
9373;DHT22;10838;52.350;9.790;2023-11-22T09:15:25;1.80;96.10
9373;DHT22;10838;52.350;9.790;2023-11-22T09:17:56;1.90;96.20
9373;DHT22;10838;52.350;9.790;2023-11-22T09:20:23;1.90;96.20
9373;DHT22;10838;52.350;9.790;2023-11-22T09:22:51;2.00;96.20
9373;DHT22;10838;52.350;9.790;2023-11-22T09:25:19;2.00;96.20
9373;DHT22;10838;52.350;9.790;2023-11-22T09:27:47;2.00;96.20
9373;DHT22;10838;52.350;9.790;2023-11-22T09:30:14;2.10;96.20
9373;DHT22;10838;52.350;9.790;2023-11-22T09:32:58;2.10;96.20
9373;DHT22;10838;52.350;9.790;2023-11-22T09:35:25;2.10;96.20
9373;DHT22;10838;52.350;9.790;2023-11-22T09:37:53;2.20;96.20
9373;DHT22;10838;52.350;9.790;2023-11-22T09:40:19;2.20;96.20
9373;DHT22;10838;52.350;9.790;2023-11-22T09:42:48;2.30;96.20
9373;DHT22;10838;52.350;9.790;2023-11-22T09:45:17;2.30;96.20
9373;DHT22;10838;52.350;9.790;2023-11-22T09:47:44;2.30;96.20
9373;DHT22;10838;52.350;9.790;2023-11-22T09:50:17;2.30;96.20
9373;DHT22;10838;52.350;9.790;2023-11-22T09:52:50;2.40;96.20
9373;DHT22;10838;52.350;9.790;2023-11-22T09:55:18;2.40;96.10
9373;DHT22;10838;52.350;9.790;2023-11-22T09:57:45;2.40;96.10
9373;DHT22;10838;52.350;9.790;2023-11-22T10:00:13;2.50;96.10
9373;DHT22;10838;52.350;9.790;2023-11-22T10:02:42;2.50;96.10
9373;DHT22;10838;52.350;9.790;2023-11-22T10:05:09;2.60;96.10
9373;DHT22;10838;52.350;9.790;2023-11-22T10:07:38;2.60;96.10
9373;DHT22;10838;52.350;9.790;2023-11-22T10:10:05;2.60;96.10
9373;DHT22;10838;52.350;9.790;2023-11-22T10:12:33;2.70;96.10
9373;DHT22;10838;52.350;9.790;2023-11-22T10:15:12;2.70;96.00
9373;DHT22;10838;52.350;9.790;2023-11-22T10:17:39;2.80;96.00
9373;DHT22;10838;52.350;9.790;2023-11-22T10:20:07;2.80;96.10
9373;DHT22;10838;52.350;9.790;2023-11-22T10:22:47;2.80;96.00
9373;DHT22;10838;52.350;9.790;2023-11-22T10:25:14;2.90;96.00
9373;DHT22;10838;52.350;9.790;2023-11-22T10:27:44;2.90;96.00
9373;DHT22;10838;52.350;9.790;2023-11-22T10:30:12;3.00;96.00
9373;DHT22;10838;52.350;9.790;2023-11-22T10:32:39;3.00;95.90
9373;DHT22;10838;52.350;9.790;2023-11-22T10:35:07;3.00;95.80
9373;DHT22;10838;52.350;9.790;2023-11-22T10:37:34;3.10;95.80
9373;DHT22;10838;52.350;9.790;2023-11-22T10:40:02;3.10;95.80
9373;DHT22;10838;52.350;9.790;2023-11-22T10:42:31;3.10;95.80
9373;DHT22;10838;52.350;9.790;2023-11-22T10:45:00;3.10;95.70
9373;DHT22;10838;52.350;9.790;2023-11-22T10:47:29;3.20;95.70
9373;DHT22;10838;52.350;9.790;2023-11-22T10:49:57;3.20;95.70
9373;DHT22;10838;52.350;9.790;2023-11-22T10:52:27;3.20;95.50
9373;DHT22;10838;52.350;9.790;2023-11-22T10:55:03;3.30;95.50
9373;DHT22;10838;52.350;9.790;2023-11-22T10:57:31;3.30;95.50
9373;DHT22;10838;52.350;9.790;2023-11-22T11:00:03;3.30;95.40
9373;DHT22;10838;52.350;9.790;2023-11-22T11:02:35;3.30;95.40
9373;DHT22;10838;52.350;9.790;2023-11-22T11:05:10;3.40;95.30
9373;DHT22;10838;52.350;9.790;2023-11-22T11:07:46;3.40;95.20
9373;DHT22;10838;52.350;9.790;2023-11-22T11:10:17;3.40;95.10
9373;DHT22;10838;52.350;9.790;2023-11-22T11:12:45;3.40;95.10
9373;DHT22;10838;52.350;9.790;2023-11-22T11:15:12;3.40;95.10
9373;DHT22;10838;52.350;9.790;2023-11-22T11:17:40;3.50;95.00
9373;DHT22;10838;52.350;9.790;2023-11-22T11:20:10;3.50;94.90
9373;DHT22;10838;52.350;9.790;2023-11-22T11:22:38;3.50;94.90
9373;DHT22;10838;52.350;9.790;2023-11-22T11:25:06;3.50;94.90
9373;DHT22;10838;52.350;9.790;2023-11-22T11:27:35;3.50;94.90
9373;DHT22;10838;52.350;9.790;2023-11-22T11:30:05;3.50;94.90
9373;DHT22;10838;52.350;9.790;2023-11-22T11:32:53;3.60;94.90
9373;DHT22;10838;52.350;9.790;2023-11-22T11:35:37;3.60;94.90
9373;DHT22;10838;52.350;9.790;2023-11-22T11:38:04;3.60;94.80
9373;DHT22;10838;52.350;9.790;2023-11-22T11:40:35;3.70;94.90
9373;DHT22;10838;52.350;9.790;2023-11-22T11:43:02;3.70;94.80
9373;DHT22;10838;52.350;9.790;2023-11-22T11:45:28;3.70;94.80
9373;DHT22;10838;52.350;9.790;2023-11-22T11:47:58;3.70;94.60
9373;DHT22;10838;52.350;9.790;2023-11-22T11:50:24;3.70;94.60
9373;DHT22;10838;52.350;9.790;2023-11-22T11:52:53;3.70;94.70
9373;DHT22;10838;52.350;9.790;2023-11-22T11:55:19;3.80;94.60
9373;DHT22;10838;52.350;9.790;2023-11-22T11:57:46;3.80;94.60
9373;DHT22;10838;52.350;9.790;2023-11-22T12:00:14;3.80;94.70
9373;DHT22;10838;52.350;9.790;2023-11-22T12:02:41;3.80;94.70
9373;DHT22;10838;52.350;9.790;2023-11-22T12:05:09;3.90;94.50
9373;DHT22;10838;52.350;9.790;2023-11-22T12:07:36;3.80;94.30
9373;DHT22;10838;52.350;9.790;2023-11-22T12:10:04;3.80;94.20
9373;DHT22;10838;52.350;9.790;2023-11-22T12:12:32;3.80;94.20
9373;DHT22;10838;52.350;9.790;2023-11-22T12:14:59;3.80;94.30
9373;DHT22;10838;52.350;9.790;2023-11-22T12:17:26;3.80;94.30
9373;DHT22;10838;52.350;9.790;2023-11-22T12:19:53;3.80;94.30
9373;DHT22;10838;52.350;9.790;2023-11-22T12:22:36;3.90;94.30
9373;DHT22;10838;52.350;9.790;2023-11-22T12:25:03;3.90;94.40
9373;DHT22;10838;52.350;9.790;2023-11-22T12:27:46;3.90;94.30
9373;DHT22;10838;52.350;9.790;2023-11-22T12:30:28;3.90;94.40
9373;DHT22;10838;52.350;9.790;2023-11-22T12:32:55;4.00;94.40
9373;DHT22;10838;52.350;9.790;2023-11-22T12:35:22;4.00;94.40
9373;DHT22;10838;52.350;9.790;2023-11-22T12:37:51;4.00;94.40
9373;DHT22;10838;52.350;9.790;2023-11-22T12:40:20;4.00;94.40
9373;DHT22;10838;52.350;9.790;2023-11-22T12:42:48;4.00;94.40
9373;DHT22;10838;52.350;9.790;2023-11-22T12:45:19;4.00;94.40
9373;DHT22;10838;52.350;9.790;2023-11-22T12:47:46;4.00;94.50
9373;DHT22;10838;52.350;9.790;2023-11-22T12:50:29;4.00;94.50
9373;DHT22;10838;52.350;9.790;2023-11-22T12:52:57;4.00;94.40
9373;DHT22;10838;52.350;9.790;2023-11-22T12:55:24;4.00;94.50
9373;DHT22;10838;52.350;9.790;2023-11-22T12:57:56;4.00;94.50
9373;DHT22;10838;52.350;9.790;2023-11-22T13:00:24;4.10;94.50
9373;DHT22;10838;52.350;9.790;2023-11-22T13:02:51;4.10;94.50
9373;DHT22;10838;52.350;9.790;2023-11-22T13:05:18;4.10;94.50
9373;DHT22;10838;52.350;9.790;2023-11-22T13:07:44;4.10;94.40
9373;DHT22;10838;52.350;9.790;2023-11-22T13:10:12;4.10;94.40
9373;DHT22;10838;52.350;9.790;2023-11-22T13:12:41;4.10;94.40
9373;DHT22;10838;52.350;9.790;2023-11-22T13:15:09;4.10;94.40
9373;DHT22;10838;52.350;9.790;2023-11-22T13:17:37;4.10;94.40
9373;DHT22;10838;52.350;9.790;2023-11-22T13:20:06;4.10;94.30
9373;DHT22;10838;52.350;9.790;2023-11-22T13:22:39;4.10;94.30
9373;DHT22;10838;52.350;9.790;2023-11-22T13:25:06;4.10;94.30
9373;DHT22;10838;52.350;9.790;2023-11-22T13:27:34;4.10;94.40
9373;DHT22;10838;52.350;9.790;2023-11-22T13:30:02;4.10;94.40
9373;DHT22;10838;52.350;9.790;2023-11-22T13:32:29;4.10;94.30
9373;DHT22;10838;52.350;9.790;2023-11-22T13:34:56;4.10;94.30
9373;DHT22;10838;52.350;9.790;2023-11-22T13:37:23;4.10;94.30
9373;DHT22;10838;52.350;9.790;2023-11-22T13:39:50;4.10;94.40
9373;DHT22;10838;52.350;9.790;2023-11-22T13:42:17;4.10;94.30
9373;DHT22;10838;52.350;9.790;2023-11-22T13:44:45;4.00;94.30
9373;DHT22;10838;52.350;9.790;2023-11-22T13:47:12;4.00;94.30
9373;DHT22;10838;52.350;9.790;2023-11-22T13:49:40;4.00;94.30
9373;DHT22;10838;52.350;9.790;2023-11-22T13:52:08;4.00;94.40
9373;DHT22;10838;52.350;9.790;2023-11-22T13:54:34;4.00;94.40
9373;DHT22;10838;52.350;9.790;2023-11-22T13:57:04;4.00;94.30
9373;DHT22;10838;52.350;9.790;2023-11-22T13:59:31;4.00;94.40
9373;DHT22;10838;52.350;9.790;2023-11-22T14:01:59;4.00;94.40
9373;DHT22;10838;52.350;9.790;2023-11-22T14:04:41;4.00;94.40
9373;DHT22;10838;52.350;9.790;2023-11-22T14:07:08;4.00;94.40
9373;DHT22;10838;52.350;9.790;2023-11-22T14:09:34;4.00;94.50
9373;DHT22;10838;52.350;9.790;2023-11-22T14:12:02;4.00;94.50
9373;DHT22;10838;52.350;9.790;2023-11-22T14:14:28;4.00;94.50
9373;DHT22;10838;52.350;9.790;2023-11-22T14:16:55;4.10;94.50
9373;DHT22;10838;52.350;9.790;2023-11-22T14:19:24;4.00;94.50
9373;DHT22;10838;52.350;9.790;2023-11-22T14:21:50;4.00;94.60
9373;DHT22;10838;52.350;9.790;2023-11-22T14:24:17;4.00;94.50
9373;DHT22;10838;52.350;9.790;2023-11-22T14:26:43;4.00;94.50
9373;DHT22;10838;52.350;9.790;2023-11-22T14:29:14;4.00;94.50
9373;DHT22;10838;52.350;9.790;2023-11-22T14:31:41;4.00;94.40
9373;DHT22;10838;52.350;9.790;2023-11-22T14:34:08;4.00;94.40
9373;DHT22;10838;52.350;9.790;2023-11-22T14:36:38;4.00;94.40
9373;DHT22;10838;52.350;9.790;2023-11-22T14:39:05;4.00;94.40
9373;DHT22;10838;52.350;9.790;2023-11-22T14:41:32;4.00;94.40
9373;DHT22;10838;52.350;9.790;2023-11-22T14:44:00;4.00;94.40
9373;DHT22;10838;52.350;9.790;2023-11-22T14:46:27;4.00;94.40
9373;DHT22;10838;52.350;9.790;2023-11-22T14:48:54;4.00;94.40
9373;DHT22;10838;52.350;9.790;2023-11-22T14:51:21;4.00;94.40
9373;DHT22;10838;52.350;9.790;2023-11-22T14:53:49;4.00;94.40
9373;DHT22;10838;52.350;9.790;2023-11-22T14:56:15;4.00;94.40
9373;DHT22;10838;52.350;9.790;2023-11-22T14:58:43;4.00;94.40
9373;DHT22;10838;52.350;9.790;2023-11-22T15:01:10;4.00;94.40
9373;DHT22;10838;52.350;9.790;2023-11-22T15:03:37;4.00;94.40
9373;DHT22;10838;52.350;9.790;2023-11-22T15:06:04;3.90;94.40
9373;DHT22;10838;52.350;9.790;2023-11-22T15:08:31;3.90;94.50
9373;DHT22;10838;52.350;9.790;2023-11-22T15:11:00;3.90;94.50
9373;DHT22;10838;52.350;9.790;2023-11-22T15:13:26;3.90;94.60
9373;DHT22;10838;52.350;9.790;2023-11-22T15:15:53;3.90;94.50
9373;DHT22;10838;52.350;9.790;2023-11-22T15:18:22;3.90;94.50
9373;DHT22;10838;52.350;9.790;2023-11-22T15:20:49;3.90;94.50
9373;DHT22;10838;52.350;9.790;2023-11-22T15:23:16;3.90;94.60
9373;DHT22;10838;52.350;9.790;2023-11-22T15:25:44;3.90;94.60
9373;DHT22;10838;52.350;9.790;2023-11-22T15:28:13;3.90;94.60
9373;DHT22;10838;52.350;9.790;2023-11-22T15:30:47;3.90;94.60
9373;DHT22;10838;52.350;9.790;2023-11-22T15:33:14;3.90;94.60
9373;DHT22;10838;52.350;9.790;2023-11-22T15:35:41;3.90;94.60
9373;DHT22;10838;52.350;9.790;2023-11-22T15:38:07;3.90;94.70
9373;DHT22;10838;52.350;9.790;2023-11-22T15:40:34;3.90;94.70
9373;DHT22;10838;52.350;9.790;2023-11-22T15:43:00;3.90;94.70
9373;DHT22;10838;52.350;9.790;2023-11-22T15:45:28;3.90;94.80
9373;DHT22;10838;52.350;9.790;2023-11-22T15:47:55;3.90;94.70
9373;DHT22;10838;52.350;9.790;2023-11-22T15:50:22;3.90;94.70
9373;DHT22;10838;52.350;9.790;2023-11-22T15:52:48;3.90;94.70
9373;DHT22;10838;52.350;9.790;2023-11-22T15:55:15;3.90;94.70
9373;DHT22;10838;52.350;9.790;2023-11-22T15:57:43;3.90;94.70
9373;DHT22;10838;52.350;9.790;2023-11-22T16:00:10;3.90;94.70
9373;DHT22;10838;52.350;9.790;2023-11-22T16:02:38;3.90;94.70
9373;DHT22;10838;52.350;9.790;2023-11-22T16:05:05;3.90;94.70